Time;durP1;ratioP1;P1;durP2;ratioP2;P2;SDS_P1;SDS_P2;PMS_P1;PMS_P2;Temp;Humidity;BMP_temperature;BMP_pressure;BME280_temperature;BME280_humidity;BME280_pressure;Samples;Min_cycle;Max_cycle;Signal;HPM_P1;HPM_P2
2024/01/04 00:02:17;;;;;;;2.25;0.70;;;7.30;75.10;;;;;;4917850;29;20039;-76
2024/01/04 00:04:42;;;;;;;5.18;1.05;;;7.30;75.20;;;;;;4917928;29;20055;-75
2024/01/04 00:07:08;;;;;;;5.65;1.02;;;7.40;75.00;;;;;;4917942;29;20043;-76
2024/01/04 00:09:34;;;;;;;3.95;1.13;;;7.30;75.40;;;;;;4917637;29;20508;-75
2024/01/04 00:11:59;;;;;;;6.43;1.02;;;7.30;76.00;;;;;;4917737;29;20044;-80
2024/01/04 00:14:25;;;;;;;4.25;1.27;;;7.30;76.50;;;;;;4900772;29;20066;-78
2024/01/04 00:16:50;;;;;;;5.43;0.75;;;7.30;76.30;;;;;;4917971;29;20062;-80
2024/01/04 00:19:16;;;;;;;4.43;0.90;;;7.30;76.50;;;;;;4900660;29;20028;-79
2024/01/04 00:21:42;;;;;;;5.18;0.77;;;7.30;77.70;;;;;;4917766;29;20032;-78
2024/01/04 00:24:07;;;;;;;6.35;1.17;;;7.20;78.80;;;;;;4917701;29;20495;-79
2024/01/04 00:26:33;;;;;;;3.20;0.88;;;7.10;79.00;;;;;;4917588;29;20028;-78
2024/01/04 00:28:59;;;;;;;2.45;0.70;;;7.00;79.50;;;;;;4917519;29;20088;-77
2024/01/04 00:31:25;;;;;;;4.05;0.82;;;7.00;78.70;;;;;;4917447;29;20113;-80
2024/01/04 00:33:51;;;;;;;3.22;0.57;;;7.00;78.90;;;;;;4917559;29;20032;-75
2024/01/04 00:36:16;;;;;;;6.75;0.80;;;7.20;78.40;;;;;;4917482;29;20024;-75
2024/01/04 00:38:42;;;;;;;5.55;0.90;;;7.10;77.80;;;;;;4917288;29;20030;-75
2024/01/04 00:41:08;;;;;;;4.28;0.95;;;7.20;77.40;;;;;;4917264;29;20092;-76
2024/01/04 00:43:33;;;;;;;3.70;0.73;;;7.30;77.70;;;;;;4915995;29;20035;-76
2024/01/04 00:45:59;;;;;;;3.35;0.75;;;7.30;77.60;;;;;;4917191;29;20028;-76
2024/01/04 00:48:24;;;;;;;4.57;1.02;;;7.20;77.10;;;;;;4917204;29;20024;-75
2024/01/04 00:50:50;;;;;;;4.68;0.77;;;7.20;77.50;;;;;;4899857;29;20099;-75
2024/01/04 00:53:15;;;;;;;3.92;1.15;;;7.10;78.40;;;;;;4917030;29;20028;-74
2024/01/04 00:55:41;;;;;;;3.85;1.02;;;7.20;77.30;;;;;;4900140;29;20128;-75
2024/01/04 00:58:07;;;;;;;4.10;0.73;;;7.20;77.00;;;;;;4915719;29;20059;-77
2024/01/04 01:00:32;;;;;;;3.72;1.00;;;7.20;76.70;;;;;;4917021;29;20035;-74
2024/01/04 01:02:59;;;;;;;3.80;0.88;;;7.20;75.80;;;;;;4915768;29;20020;-76
2024/01/04 01:05:24;;;;;;;4.32;1.05;;;7.20;76.20;;;;;;4917019;29;20028;-74
2024/01/04 01:07:50;;;;;;;5.90;0.80;;;7.10;75.90;;;;;;4916782;29;20039;-74
2024/01/04 01:10:15;;;;;;;3.42;0.82;;;7.20;75.30;;;;;;4916777;29;20039;-75
2024/01/04 01:12:41;;;;;;;3.42;0.82;;;7.20;74.50;;;;;;4916929;29;20038;-75
2024/01/04 01:15:07;;;;;;;6.68;0.95;;;7.20;74.20;;;;;;4916817;29;20020;-74
2024/01/04 01:17:32;;;;;;;4.15;0.80;;;7.20;74.60;;;;;;4916767;29;20500;-77
2024/01/04 01:19:58;;;;;;;6.25;1.10;;;7.20;74.20;;;;;;4916793;29;20107;-76
2024/01/04 01:22:24;;;;;;;4.20;0.95;;;7.30;73.80;;;;;;4916779;29;20059;-77
2024/01/04 01:24:50;;;;;;;4.25;1.10;;;7.20;74.00;;;;;;4915500;29;20031;-74
2024/01/04 01:27:15;;;;;;;4.65;1.05;;;7.30;74.40;;;;;;4916792;29;20028;-77
2024/01/04 01:29:41;;;;;;;4.00;0.80;;;7.20;74.30;;;;;;4916015;29;20062;-79
2024/01/04 01:32:07;;;;;;;2.53;0.60;;;7.20;74.30;;;;;;4917200;29;20043;-75
2024/01/04 01:34:33;;;;;;;4.47;1.00;;;7.20;74.20;;;;;;4916610;29;20032;-74
2024/01/04 01:36:59;;;;;;;4.03;0.70;;;7.20;74.00;;;;;;4916935;29;20382;-75
2024/01/04 01:39:25;;;;;;;5.07;1.02;;;7.20;74.20;;;;;;4916615;29;20024;-76
2024/01/04 01:41:51;;;;;;;7.80;1.33;;;7.10;74.90;;;;;;4916632;29;20107;-74
2024/01/04 01:44:17;;;;;;;5.50;1.25;;;7.10;74.70;;;;;;4916778;29;20458;-75
2024/01/04 01:46:44;;;;;;;5.47;0.98;;;7.10;75.20;;;;;;4915595;29;20043;-74
2024/01/04 01:49:10;;;;;;;5.78;1.08;;;7.20;74.60;;;;;;4916464;29;20072;-74
2024/01/04 01:51:36;;;;;;;8.30;1.75;;;7.10;74.90;;;;;;4916358;29;20430;-79
2024/01/04 01:54:03;;;;;;;5.22;0.95;;;7.20;75.90;;;;;;4916379;29;20040;-75
2024/01/04 01:56:30;;;;;;;6.50;1.00;;;7.20;74.90;;;;;;4916453;29;20043;-75
2024/01/04 01:58:57;;;;;;;10.10;1.10;;;7.20;74.80;;;;;;4916307;29;20036;-76
2024/01/04 02:01:23;;;;;;;4.43;1.10;;;7.20;74.80;;;;;;4916400;29;20028;-77
2024/01/04 02:03:50;;;;;;;5.03;0.80;;;7.20;74.60;;;;;;4919612;29;20051;-74
2024/01/04 02:06:15;;;;;;;2.60;0.80;;;7.20;75.40;;;;;;4920036;29;20021;-76
2024/01/04 02:08:44;;;;;;;2.42;0.50;;;7.20;75.50;;;;;;4919870;29;20413;-74
2024/01/04 02:11:10;;;;;;;2.78;0.40;;;7.20;75.30;;;;;;4919959;29;20036;-78
2024/01/04 02:13:35;;;;;;;3.63;0.60;;;7.20;75.20;;;;;;4918648;29;20028;-75
2024/01/04 02:16:01;;;;;;;2.88;0.47;;;7.20;75.50;;;;;;4919889;29;20115;-76
2024/01/04 02:18:27;;;;;;;3.60;0.43;;;7.20;75.90;;;;;;4919736;29;20024;-76
2024/01/04 02:20:52;;;;;;;2.92;0.60;;;7.20;76.00;;;;;;4919738;29;20115;-75
2024/01/04 02:23:18;;;;;;;3.58;0.60;;;7.20;75.50;;;;;;4918793;29;20035;-76
2024/01/04 02:25:44;;;;;;;2.72;0.50;;;7.20;75.30;;;;;;4919745;29;20477;-79
2024/01/04 02:28:10;;;;;;;2.90;0.85;;;7.20;75.20;;;;;;4919628;29;20099;-75
2024/01/04 02:30:35;;;;;;;5.60;0.80;;;7.20;75.10;;;;;;4919510;29;20163;-75
2024/01/04 02:33:01;;;;;;;4.15;0.90;;;7.30;75.20;;;;;;4919537;29;20106;-79
2024/01/04 02:35:27;;;;;;;1.67;0.50;;;7.30;75.20;;;;;;4919504;29;20035;-79
2024/01/04 02:37:52;;;;;;;3.55;0.60;;;7.30;75.00;;;;;;4919506;29;20039;-77
2024/01/04 02:40:18;;;;;;;3.40;0.63;;;7.40;74.70;;;;;;4902337;29;20035;-75
2024/01/04 02:42:44;;;;;;;2.38;0.50;;;7.30;74.50;;;;;;4919529;29;20024;-76
2024/01/04 02:45:10;;;;;;;2.28;0.45;;;7.30;75.70;;;;;;4919428;29;20115;-75
2024/01/04 02:47:36;;;;;;;3.05;0.45;;;7.30;74.70;;;;;;4919311;29;20454;-74
2024/01/04 02:50:02;;;;;;;2.60;0.75;;;7.30;74.00;;;;;;4917962;29;20056;-75
2024/01/04 02:52:28;;;;;;;2.05;0.45;;;7.40;74.10;;;;;;4919526;29;20027;-76
2024/01/04 02:54:54;;;;;;;2.72;0.75;;;7.40;73.90;;;;;;4919178;29;20099;-77
2024/01/04 02:57:19;;;;;;;3.80;0.50;;;7.30;74.40;;;;;;4919178;29;20028;-75
2024/01/04 02:59:45;;;;;;;3.83;0.50;;;7.30;74.30;;;;;;4919196;29;20020;-76
2024/01/04 03:02:11;;;;;;;0.80;0.25;;;7.30;74.80;;;;;;4919301;29;20438;-77
2024/01/04 03:04:40;;;;;;;2.35;0.60;;;7.40;74.30;;;;;;4919028;29;20024;-76
2024/01/04 03:07:06;;;;;;;4.10;0.60;;;7.30;73.90;;;;;;4918985;29;20021;-79
2024/01/04 03:09:32;;;;;;;3.38;0.68;;;7.30;74.30;;;;;;4919210;29;20047;-75
2024/01/04 03:11:57;;;;;;;3.22;0.50;;;7.30;74.90;;;;;;4918771;29;20040;-77
2024/01/04 03:14:23;;;;;;;2.60;0.57;;;7.30;75.30;;;;;;4918635;29;20059;-75
2024/01/04 03:16:48;;;;;;;2.35;0.40;;;7.30;75.80;;;;;;4918757;29;20024;-77
2024/01/04 03:19:14;;;;;;;3.30;0.55;;;7.30;76.00;;;;;;4917490;29;20042;-75
2024/01/04 03:21:40;;;;;;;3.35;0.65;;;7.20;77.30;;;;;;4918637;29;20485;-75
2024/01/04 03:24:05;;;;;;;1.73;0.50;;;7.10;77.10;;;;;;4918649;29;20032;-76
2024/01/04 03:26:32;;;;;;;1.45;0.40;;;7.10;77.40;;;;;;4918564;29;20434;-75
2024/01/04 03:28:57;;;;;;;2.05;0.55;;;7.10;77.90;;;;;;4918576;29;20068;-76
2024/01/04 03:31:23;;;;;;;0.82;0.30;;;7.10;78.90;;;;;;4917240;29;20036;-78
2024/01/04 03:33:49;;;;;;;2.97;0.50;;;7.00;79.90;;;;;;4918300;29;20028;-79
2024/01/04 03:36:15;;;;;;;3.28;0.50;;;6.90;81.30;;;;;;4918356;29;20031;-80
2024/01/04 03:38:41;;;;;;;1.98;0.43;;;6.90;81.20;;;;;;4901290;29;20037;-80
2024/01/04 03:41:07;;;;;;;1.35;0.35;;;6.90;80.70;;;;;;4917098;29;20056;-81
2024/01/04 03:43:33;;;;;;;4.28;0.52;;;6.70;80.30;;;;;;4901679;29;20035;-81
2024/01/04 03:45:59;;;;;;;1.80;0.22;;;6.80;80.50;;;;;;4901527;29;20071;-82
2024/01/04 03:48:25;;;;;;;0.88;0.30;;;6.70;81.30;;;;;;4901284;29;20051;-81
2024/01/04 03:50:50;;;;;;;2.55;0.52;;;6.60;81.00;;;;;;4918439;29;20028;-80
2024/01/04 03:53:16;;;;;;;2.28;0.55;;;6.70;81.00;;;;;;4918153;29;20028;-80
2024/01/04 03:55:41;;;;;;;3.67;0.40;;;6.70;81.40;;;;;;4900977;29;20020;-80
2024/01/04 03:58:07;;;;;;;3.47;0.70;;;6.70;82.00;;;;;;4901285;29;20034;-82
2024/01/04 04:00:33;;;;;;;2.67;0.77;;;6.70;82.60;;;;;;4900822;29;20036;-82
2024/01/04 04:02:58;;;;;;;1.38;0.40;;;6.60;82.60;;;;;;4917990;29;20385;-81
2024/01/04 04:05:24;;;;;;;2.08;0.45;;;6.70;81.70;;;;;;4917967;29;20466;-81
2024/01/04 04:07:50;;;;;;;2.40;0.50;;;6.70;82.40;;;;;;4900687;29;20532;-82
2024/01/04 04:10:16;;;;;;;1.17;0.30;;;6.60;81.60;;;;;;4900494;29;20050;-81
2024/01/04 04:12:42;;;;;;;1.77;0.43;;;6.70;81.10;;;;;;4901276;29;20135;-80
2024/01/04 04:15:09;;;;;;;3.45;0.40;;;6.70;81.30;;;;;;4917916;29;20429;-82
2024/01/04 04:17:34;;;;;;;3.80;0.55;;;6.60;81.30;;;;;;4900649;29;20032;-82
2024/01/04 04:20:00;;;;;;;1.95;0.65;;;6.70;80.70;;;;;;4917726;29;20111;-80
2024/01/04 04:22:26;;;;;;;2.45;0.40;;;6.70;80.40;;;;;;4900836;29;20032;-81
2024/01/04 04:24:51;;;;;;;3.72;0.60;;;6.70;80.20;;;;;;4915828;29;20025;-78
2024/01/04 04:27:17;;;;;;;5.88;0.52;;;6.70;79.40;;;;;;4900393;29;20032;-81
2024/01/04 04:29:43;;;;;;;3.22;0.82;;;6.70;79.80;;;;;;4900849;29;20023;-80
2024/01/04 04:32:09;;;;;;;1.83;0.43;;;6.60;80.00;;;;;;4917610;29;20391;-81
2024/01/04 04:34:35;;;;;;;1.80;0.57;;;6.60;79.40;;;;;;4900169;29;20083;-79
2024/01/04 04:37:01;;;;;;;3.40;0.55;;;6.60;79.50;;;;;;4900375;29;20059;-80
2024/01/04 04:39:27;;;;;;;0.88;0.40;;;6.60;79.10;;;;;;4917354;29;20474;-81
2024/01/04 04:41:53;;;;;;;7.15;0.68;;;6.60;79.10;;;;;;4900246;29;20082;-79
2024/01/04 04:44:18;;;;;;;2.50;0.60;;;6.60;78.90;;;;;;4902332;29;20139;-79
2024/01/04 04:46:44;;;;;;;3.85;0.98;;;6.60;79.70;;;;;;4902261;29;20035;-78
2024/01/04 04:49:09;;;;;;;2.13;0.60;;;6.60;80.00;;;;;;4918651;29;20027;-80
2024/01/04 04:51:35;;;;;;;2.13;0.50;;;6.50;80.40;;;;;;4917405;29;20083;-78
2024/01/04 04:54:00;;;;;;;3.80;0.57;;;6.60;79.90;;;;;;4900513;29;20055;-77
2024/01/04 04:56:26;;;;;;;2.63;0.55;;;6.60;80.00;;;;;;4916495;29;20083;-79
2024/01/04 04:58:51;;;;;;;3.28;0.60;;;6.60;79.80;;;;;;4917244;29;20028;-76
2024/01/04 05:01:17;;;;;;;2.72;0.57;;;6.60;79.80;;;;;;4900722;29;20028;-77
2024/01/04 05:03:43;;;;;;;2.95;0.52;;;6.60;79.40;;;;;;4916127;29;20031;-76
2024/01/04 05:06:10;;;;;;;3.30;0.75;;;6.60;78.70;;;;;;4900234;29;20032;-79
2024/01/04 05:08:36;;;;;;;2.60;0.50;;;6.60;78.80;;;;;;4916920;29;20040;-79
2024/01/04 05:11:02;;;;;;;3.38;0.50;;;6.70;78.60;;;;;;4900059;29;20063;-75
2024/01/04 05:13:27;;;;;;;3.15;0.47;;;6.70;78.00;;;;;;4900284;29;20028;-78
2024/01/04 05:15:53;;;;;;;3.20;0.75;;;6.80;78.00;;;;;;4899881;29;20032;-79
2024/01/04 05:18:18;;;;;;;2.60;0.50;;;6.70;78.50;;;;;;4916786;29;20024;-79
2024/01/04 05:20:44;;;;;;;5.53;0.70;;;6.70;78.60;;;;;;4899769;29;20477;-81
2024/01/04 05:23:09;;;;;;;4.53;0.65;;;6.70;78.30;;;;;;4915639;29;20110;-79
2024/01/04 05:25:35;;;;;;;2.30;0.75;;;6.70;78.60;;;;;;4899515;29;20119;-77
2024/01/04 05:28:00;;;;;;;2.85;0.63;;;6.70;79.20;;;;;;4899794;29;20048;-80
2024/01/04 05:30:26;;;;;;;2.10;0.57;;;6.70;78.90;;;;;;4899662;29;20032;-80
2024/01/04 05:32:51;;;;;;;3.67;0.60;;;6.60;79.10;;;;;;4900006;29;20092;-79
2024/01/04 05:35:17;;;;;;;4.18;0.73;;;6.70;79.00;;;;;;4899856;29;20031;-79
2024/01/04 05:37:42;;;;;;;4.10;0.85;;;6.70;79.10;;;;;;4918081;29;20573;-79
2024/01/04 05:40:09;;;;;;;3.28;0.60;;;6.80;79.20;;;;;;4903737;29;20437;-77
2024/01/04 05:42:35;;;;;;;3.90;1.10;;;6.70;79.90;;;;;;4921900;29;20050;-77
2024/01/04 05:45:01;;;;;;;4.40;0.47;;;6.70;79.90;;;;;;4904165;29;20020;-78
2024/01/04 05:47:27;;;;;;;3.83;0.77;;;6.70;80.70;;;;;;4920599;29;20028;-80
2024/01/04 05:49:52;;;;;;;5.85;0.60;;;6.60;80.00;;;;;;4903458;29;20035;-80
2024/01/04 05:52:18;;;;;;;1.98;0.55;;;6.70;79.10;;;;;;4903038;29;20220;-79
2024/01/04 05:54:43;;;;;;;3.40;0.60;;;6.70;79.20;;;;;;4903308;29;20028;-76
2024/01/04 05:57:12;;;;;;;1.98;0.40;;;6.60;79.50;;;;;;4903628;29;20044;-79
2024/01/04 05:59:37;;;;;;;4.07;0.50;;;6.70;78.70;;;;;;4903607;29;20428;-79
2024/01/04 06:02:03;;;;;;;1.45;0.50;;;6.70;78.70;;;;;;4903215;29;20039;-77
2024/01/04 06:04:29;;;;;;;2.53;0.57;;;6.60;78.30;;;;;;4903403;29;20028;-78
2024/01/04 06:06:54;;;;;;;2.85;0.63;;;6.60;77.90;;;;;;4920039;29;20032;-77
2024/01/04 06:09:21;;;;;;;3.60;0.50;;;6.60;77.60;;;;;;4919967;29;20536;-76
2024/01/04 06:11:47;;;;;;;4.93;0.77;;;6.60;78.00;;;;;;4919278;29;20048;-77
2024/01/04 06:14:14;;;;;;;1.88;0.50;;;6.60;77.70;;;;;;4903327;29;20028;-79
2024/01/04 06:16:39;;;;;;;2.00;0.70;;;6.50;77.40;;;;;;4903402;29;20035;-78
2024/01/04 06:19:05;;;;;;;3.17;0.80;;;6.60;77.30;;;;;;4903767;29;20115;-81
2024/01/04 06:21:30;;;;;;;2.08;0.50;;;6.60;77.60;;;;;;4902966;29;20119;-81
2024/01/04 06:23:57;;;;;;;2.00;0.22;;;6.60;76.90;;;;;;4903438;29;20020;-80
2024/01/04 06:26:24;;;;;;;3.70;0.75;;;6.50;76.30;;;;;;4919993;29;20058;-81
2024/01/04 06:28:49;;;;;;;2.85;0.30;;;6.50;75.80;;;;;;4902996;29;20084;-81
2024/01/04 06:31:15;;;;;;;2.75;0.70;;;6.50;76.10;;;;;;4902954;29;20443;-80
2024/01/04 06:33:41;;;;;;;2.03;0.70;;;6.50;75.70;;;;;;4902889;29;20031;-81
2024/01/04 06:36:07;;;;;;;1.70;0.63;;;6.40;75.60;;;;;;4919497;29;20496;-78
2024/01/04 06:38:35;;;;;;;3.63;0.65;;;6.50;75.30;;;;;;4919575;29;20031;-80
2024/01/04 06:41:03;;;;;;;3.67;0.90;;;6.50;75.40;;;;;;4902578;29;20552;-80
2024/01/04 06:43:30;;;;;;;5.63;1.05;;;6.50;74.80;;;;;;4919594;29;20026;-80
2024/01/04 06:45:56;;;;;;;3.13;0.82;;;6.40;74.90;;;;;;4902370;29;20060;-80
2024/01/04 06:48:22;;;;;;;2.30;0.50;;;6.40;74.70;;;;;;4902156;29;20072;-81
2024/01/04 06:50:48;;;;;;;2.15;0.60;;;6.50;74.90;;;;;;4919296;29;20028;-80
2024/01/04 06:53:16;;;;;;;2.97;0.93;;;6.50;74.40;;;;;;4919498;29;20032;-81
2024/01/04 06:55:43;;;;;;;1.65;0.60;;;6.60;74.00;;;;;;4902224;29;20029;-81
2024/01/04 06:58:09;;;;;;;3.28;0.68;;;6.70;73.60;;;;;;4902457;29;20032;-82
2024/01/04 07:00:36;;;;;;;1.10;0.30;;;6.70;73.50;;;;;;4919142;29;20135;-80
2024/01/04 07:03:02;;;;;;;3.30;0.50;;;6.70;72.90;;;;;;4919295;29;20028;-81
2024/01/04 07:05:27;;;;;;;5.53;0.90;;;6.70;72.40;;;;;;4902100;29;20024;-77
2024/01/04 07:07:53;;;;;;;3.33;0.93;;;6.80;72.40;;;;;;4901946;29;20147;-80
2024/01/04 07:10:18;;;;;;;8.25;1.15;;;6.80;72.70;;;;;;4918957;29;20035;-80
2024/01/04 07:12:44;;;;;;;5.50;0.98;;;6.70;73.10;;;;;;4919036;29;20051;-80
2024/01/04 07:15:10;;;;;;;5.20;0.73;;;6.70;72.30;;;;;;4901890;29;20385;-79
2024/01/04 07:17:36;;;;;;;3.58;0.77;;;6.70;72.40;;;;;;4901929;29;20164;-79
2024/01/04 07:20:03;;;;;;;3.78;0.90;;;6.70;71.60;;;;;;4918801;29;20115;-81
2024/01/04 07:22:29;;;;;;;4.32;0.70;;;6.80;71.70;;;;;;4917419;29;20030;-82
2024/01/04 07:24:56;;;;;;;2.60;0.80;;;6.80;71.50;;;;;;4901631;29;20050;-78
2024/01/04 07:27:21;;;;;;;1.35;0.50;;;6.80;71.80;;;;;;4901723;29;20029;-79
2024/01/04 07:29:47;;;;;;;3.28;0.93;;;6.80;72.00;;;;;;4902016;29;20039;-78
2024/01/04 07:32:16;;;;;;;5.68;1.00;;;6.80;72.80;;;;;;4901457;29;20504;-79
2024/01/04 07:34:41;;;;;;;2.47;0.60;;;6.80;72.70;;;;;;4901651;29;20020;-81
2024/01/04 07:37:07;;;;;;;6.13;0.85;;;6.80;73.00;;;;;;4918789;29;20036;-79
2024/01/04 07:39:33;;;;;;;4.03;1.05;;;6.80;73.20;;;;;;4901603;29;20198;-80
2024/01/04 07:41:58;;;;;;;4.00;0.85;;;6.90;73.40;;;;;;4918666;29;20028;-79
2024/01/04 07:44:24;;;;;;;4.50;1.45;;;6.90;72.80;;;;;;4901366;29;20054;-77
2024/01/04 07:46:51;;;;;;;4.57;1.10;;;6.90;73.10;;;;;;4901016;29;20390;-78
2024/01/04 07:49:16;;;;;;;4.05;0.80;;;6.90;73.10;;;;;;4917177;29;20043;-80
2024/01/04 07:51:42;;;;;;;3.45;1.17;;;6.90;73.20;;;;;;4908788;29;20036;-81
2024/01/04 07:54:08;;;;;;;3.63;0.70;;;6.90;73.50;;;;;;4907588;29;20060;-82
2024/01/04 07:56:33;;;;;;;3.83;0.80;;;6.90;73.50;;;;;;4901167;29;20122;-81
2024/01/04 07:58:59;;;;;;;4.53;0.90;;;7.00;73.00;;;;;;4901077;29;20370;-79
2024/01/04 08:01:24;;;;;;;2.10;0.60;;;6.90;72.40;;;;;;4900498;29;20036;-78
2024/01/04 08:03:50;;;;;;;3.53;0.77;;;6.90;72.60;;;;;;4900925;29;20028;-78
2024/01/04 08:06:15;;;;;;;3.70;0.80;;;6.90;72.10;;;;;;4900987;29;20032;-76
2024/01/04 08:08:41;;;;;;;3.53;1.05;;;6.90;72.20;;;;;;4900618;29;20052;-78
2024/01/04 08:11:10;;;;;;;2.65;0.77;;;6.90;72.60;;;;;;4900538;29;20031;-80
2024/01/04 08:13:35;;;;;;;3.78;0.63;;;7.00;72.50;;;;;;4900898;29;20038;-81
2024/01/04 08:16:02;;;;;;;5.57;0.88;;;6.90;73.10;;;;;;4917688;29;20031;-79
2024/01/04 08:18:27;;;;;;;1.55;0.90;;;7.00;73.00;;;;;;4900508;29;20028;-80
2024/01/04 08:20:53;;;;;;;2.45;0.60;;;6.90;73.70;;;;;;4917625;29;20389;-81
2024/01/04 08:23:18;;;;;;;5.13;1.08;;;6.90;74.10;;;;;;4917649;29;20082;-80
2024/01/04 08:25:44;;;;;;;0.63;0.30;;;6.90;75.20;;;;;;4900551;29;20442;-82
2024/01/04 08:28:12;;;;;;;3.47;0.57;;;6.80;74.90;;;;;;4900535;29;20111;-81
2024/01/04 08:30:37;;;;;;;2.50;0.65;;;6.80;75.70;;;;;;4900350;29;20046;-81
2024/01/04 08:33:03;;;;;;;3.47;0.65;;;6.80;75.70;;;;;;4917273;29;20470;-81
2024/01/04 08:35:29;;;;;;;2.92;0.70;;;6.80;74.60;;;;;;4916382;29;20028;-81
2024/01/04 08:37:54;;;;;;;3.92;0.57;;;6.70;74.20;;;;;;4900244;29;20028;-78
2024/01/04 08:40:20;;;;;;;2.72;0.63;;;6.80;73.20;;;;;;4915972;29;20035;-78
2024/01/04 08:42:46;;;;;;;1.95;0.50;;;6.90;72.30;;;;;;4917118;29;20548;-77
2024/01/04 08:45:12;;;;;;;3.80;0.93;;;6.90;72.20;;;;;;4900108;29;20289;-81
2024/01/04 08:47:40;;;;;;;3.85;0.98;;;7.00;71.80;;;;;;4917544;29;20031;-80
2024/01/04 08:50:06;;;;;;;5.38;1.55;;;6.90;72.20;;;;;;4900210;29;20453;-79
2024/01/04 08:52:32;;;;;;;1.92;0.90;;;7.00;72.30;;;;;;4917029;29;20072;-77
2024/01/04 08:54:58;;;;;;;2.83;0.80;;;6.90;73.00;;;;;;4900348;29;20064;-78
2024/01/04 08:57:24;;;;;;;2.65;0.93;;;6.90;73.30;;;;;;4899960;29;20036;-78
2024/01/04 08:59:50;;;;;;;4.40;1.00;;;6.90;73.50;;;;;;4899819;29;20028;-75
2024/01/04 09:02:16;;;;;;;3.05;0.80;;;6.90;73.60;;;;;;4899925;29;20028;-76
2024/01/04 09:04:41;;;;;;;5.03;1.13;;;7.00;73.00;;;;;;4900096;29;20164;-78
2024/01/04 09:07:08;;;;;;;3.83;0.63;;;7.00;73.80;;;;;;4916542;29;20039;-78
2024/01/04 09:09:34;;;;;;;2.80;0.88;;;7.00;74.10;;;;;;4899676;29;20565;-78
2024/01/04 09:12:00;;;;;;;3.95;0.90;;;7.10;74.80;;;;;;4899354;29;20040;-77
2024/01/04 09:14:26;;;;;;;2.78;1.00;;;7.10;75.20;;;;;;4899729;29;20374;-76
2024/01/04 09:16:51;;;;;;;5.70;1.13;;;7.10;74.90;;;;;;4899629;29;20032;-76
2024/01/04 09:19:19;;;;;;;4.10;1.27;;;7.10;75.60;;;;;;4899803;29;20027;-76
2024/01/04 09:21:52;;;;;;;4.65;1.63;;;7.20;74.80;;;;;;4899612;29;20035;-76
2024/01/04 09:24:18;;;;;;;5.10;1.45;;;7.10;74.30;;;;;;4899583;29;20024;-76
2024/01/04 09:26:45;;;;;;;6.95;1.40;;;7.20;72.70;;;;;;4899427;29;20080;-75
2024/01/04 09:29:12;;;;;;;3.38;0.73;;;7.30;72.60;;;;;;4899822;29;20028;-77
2024/01/04 09:31:39;;;;;;;4.90;1.27;;;7.30;72.40;;;;;;4899742;29;20040;-77
2024/01/04 09:34:04;;;;;;;6.90;1.20;;;7.40;71.90;;;;;;4900155;29;20083;-81
2024/01/04 09:36:30;;;;;;;4.82;1.00;;;7.60;71.70;;;;;;4899469;29;20496;-76
2024/01/04 09:38:59;;;;;;;5.57;1.30;;;7.70;70.70;;;;;;4915601;29;20028;-77
2024/01/04 09:41:44;;;;;;;4.93;1.25;;;7.70;71.00;;;;;;4899672;29;20040;-77
2024/01/04 09:44:11;;;;;;;6.60;1.63;;;7.60;72.40;;;;;;4916771;29;20055;-78
2024/01/04 09:46:38;;;;;;;5.55;1.38;;;7.60;72.30;;;;;;4899332;29;20025;-75
2024/01/04 09:49:05;;;;;;;4.10;1.42;;;7.50;72.80;;;;;;4899613;29;20397;-82
2024/01/04 09:51:40;;;;;;;6.93;1.00;;;7.50;73.70;;;;;;4899238;29;20350;-77
2024/01/04 09:54:08;;;;;;;4.97;1.27;;;7.50;73.80;;;;;;4899093;29;20028;-81
2024/01/04 09:56:47;;;;;;;3.78;1.15;;;7.80;73.80;;;;;;4899406;29;20139;-81
2024/01/04 09:59:13;;;;;;;5.35;1.38;;;8.10;71.80;;;;;;4899746;29;20064;-78
2024/01/04 10:01:39;;;;;;;9.15;1.67;;;8.00;70.80;;;;;;4899592;29;20134;-79
2024/01/04 10:04:11;;;;;;;4.53;0.90;;;7.90;71.50;;;;;;4899361;29;20025;-80
2024/01/04 10:06:38;;;;;;;4.55;1.10;;;7.90;70.60;;;;;;4898878;29;20099;-80
2024/01/04 10:09:38;;;;;;;7.63;1.23;;;7.80;71.00;;;;;;4899136;29;20044;-80
2024/01/04 10:12:08;;;;;;;4.22;0.68;;;7.70;71.50;;;;;;4914971;29;20051;-77
2024/01/04 10:14:34;;;;;;;3.70;1.15;;;7.60;70.20;;;;;;4916163;29;20028;-81
2024/01/04 10:17:00;;;;;;;6.07;1.20;;;7.70;70.50;;;;;;4915974;29;20174;-80
2024/01/04 10:19:27;;;;;;;5.32;1.58;;;7.60;70.90;;;;;;4915981;29;20056;-80
2024/01/04 10:21:58;;;;;;;5.97;1.27;;;7.70;71.30;;;;;;4916155;29;20032;-80
2024/01/04 10:24:26;;;;;;;4.00;1.10;;;7.70;72.70;;;;;;4918652;29;20054;-76
2024/01/04 10:26:57;;;;;;;7.18;1.52;;;7.70;73.40;;;;;;4902384;29;20034;-84
2024/01/04 10:29:26;;;;;;;5.93;1.23;;;7.80;73.80;;;;;;4902781;29;20377;-82
2024/01/04 10:32:10;;;;;;;5.82;1.45;;;7.80;72.90;;;;;;4902746;29;20095;-81
2024/01/04 10:34:37;;;;;;;4.82;1.25;;;7.70;73.70;;;;;;4902137;29;20553;-82
2024/01/04 10:37:09;;;;;;;6.85;1.38;;;7.70;73.90;;;;;;4902215;29;20486;-80
2024/01/04 10:39:36;;;;;;;8.02;1.70;;;7.70;73.40;;;;;;4918100;29;20119;-80
2024/01/04 10:42:03;;;;;;;4.88;1.17;;;7.80;72.60;;;;;;4919207;29;20430;-80
2024/01/04 10:44:29;;;;;;;6.95;1.48;;;7.80;71.40;;;;;;4902170;29;20510;-80
2024/01/04 10:46:56;;;;;;;6.60;1.60;;;7.80;72.00;;;;;;4902345;29;20028;-80
2024/01/04 10:49:26;;;;;;;5.95;1.60;;;7.80;72.20;;;;;;4919323;29;20081;-80
2024/01/04 10:51:53;;;;;;;7.80;1.50;;;7.90;72.20;;;;;;4902346;29;20520;-82
2024/01/04 10:54:20;;;;;;;7.82;1.52;;;8.00;71.30;;;;;;4902630;29;20028;-81
2024/01/04 10:56:46;;;;;;;6.15;1.58;;;8.00;71.00;;;;;;4903114;29;20024;-82
2024/01/04 10:59:12;;;;;;;6.32;1.27;;;8.00;70.70;;;;;;4918958;29;20032;-82
2024/01/04 11:01:41;;;;;;;5.32;1.70;;;8.10;70.00;;;;;;4903180;29;20084;-79
2024/01/04 11:04:07;;;;;;;8.00;2.05;;;8.20;70.30;;;;;;4919548;29;20111;-80
2024/01/04 11:06:40;;;;;;;9.07;2.70;;;8.20;70.40;;;;;;4902109;29;20328;-79
2024/01/04 11:09:09;;;;;;;8.82;1.83;;;8.30;69.60;;;;;;4901955;29;20442;-79
2024/01/04 11:11:35;;;;;;;6.93;1.85;;;8.40;69.40;;;;;;4917571;29;20131;-82
2024/01/04 11:14:02;;;;;;;10.00;1.60;;;8.40;69.10;;;;;;4918678;29;20035;-80
2024/01/04 11:17:11;;;;;;;3.38;1.20;;;8.40;68.20;;;;;;4901904;29;20035;-81
2024/01/04 11:20:15;;;;;;;6.47;1.23;;;8.40;68.00;;;;;;4903232;29;20048;-78
2024/01/04 11:23:11;;;;;;;5.72;2.08;;;8.50;68.60;;;;;;4902998;29;20024;-81
2024/01/04 11:26:04;;;;;;;5.97;1.60;;;8.70;67.90;;;;;;4902278;29;20400;-80
2024/01/04 11:28:31;;;;;;;6.22;1.35;;;8.90;65.20;;;;;;4919089;29;20028;-81
2024/01/04 11:30:59;;;;;;;8.73;1.55;;;9.20;63.10;;;;;;4902246;29;20036;-82
2024/01/04 11:33:28;;;;;;;3.95;1.10;;;9.40;62.20;;;;;;4917700;29;20030;-81
2024/01/04 11:35:54;;;;;;;3.58;1.40;;;9.40;61.50;;;;;;4901397;29;20564;-79
2024/01/04 11:38:24;;;;;;;5.13;1.00;;;9.60;59.90;;;;;;4901536;29;20088;-78
2024/01/04 11:40:50;;;;;;;3.65;0.95;;;9.80;59.20;;;;;;4901700;29;20024;-80
2024/01/04 11:43:16;;;;;;;4.95;1.23;;;9.90;58.10;;;;;;4918866;29;20036;-80
2024/01/04 11:45:46;;;;;;;7.40;1.73;;;10.60;54.70;;;;;;4901555;29;20036;-80
2024/01/04 11:48:12;;;;;;;7.75;1.55;;;10.30;55.40;;;;;;4901154;29;20032;-81
2024/01/04 11:50:49;;;;;;;4.78;1.65;;;10.60;56.00;;;;;;4900916;29;20059;-79
2024/01/04 11:53:18;;;;;;;5.22;1.20;;;10.60;55.20;;;;;;4900778;29;20127;-80
2024/01/04 11:55:44;;;;;;;4.57;1.25;;;10.20;55.50;;;;;;4918183;29;20055;-81
2024/01/04 11:58:24;;;;;;;5.85;1.25;;;9.80;56.50;;;;;;4901129;29;20028;-81
2024/01/04 12:00:52;;;;;;;4.85;0.82;;;9.50;57.70;;;;;;4901063;29;20032;-80
2024/01/04 12:03:22;;;;;;;4.05;0.98;;;9.20;59.00;;;;;;4908767;29;20024;-78
2024/01/04 12:05:53;;;;;;;5.70;1.08;;;9.10;59.80;;;;;;4921653;29;20032;-80
2024/01/04 12:08:28;;;;;;;4.70;1.30;;;9.10;60.10;;;;;;4916485;29;20130;-81
2024/01/04 12:10:56;;;;;;;2.58;0.52;;;9.00;61.40;;;;;;4917684;29;20032;-80
2024/01/04 12:13:23;;;;;;;4.65;1.27;;;8.80;61.60;;;;;;4916384;29;20040;-80
2024/01/04 12:15:49;;;;;;;4.22;1.63;;;8.60;62.80;;;;;;4917566;29;20213;-79
2024/01/04 12:18:16;;;;;;;3.42;1.13;;;8.60;63.80;;;;;;4900679;29;20123;-80
2024/01/04 12:20:43;;;;;;;3.22;0.60;;;8.60;64.30;;;;;;4916841;29;20545;-81
2024/01/04 12:23:10;;;;;;;4.60;1.30;;;8.50;64.00;;;;;;4901148;29;20114;-80
2024/01/04 12:25:37;;;;;;;4.28;1.20;;;8.90;64.50;;;;;;4900608;29;20036;-80
2024/01/04 12:28:05;;;;;;;3.60;0.98;;;9.60;61.20;;;;;;4900450;29;20482;-81
2024/01/04 12:30:31;;;;;;;5.15;1.23;;;10.70;57.80;;;;;;4900817;29;20436;-83
2024/01/04 12:32:57;;;;;;;2.88;1.05;;;12.40;53.10;;;;;;4900809;29;20104;-81
2024/01/04 12:35:22;;;;;;;1.00;0.55;;;14.00;47.10;;;;;;4900504;29;20112;-81
2024/01/04 12:38:07;;;;;;;1.33;0.60;;;14.90;43.50;;;;;;4900796;29;20028;-80
2024/01/04 12:40:49;;;;;;;1.88;0.80;;;15.80;41.20;;;;;;4899989;29;20123;-81
2024/01/04 12:43:21;;;;;;;2.63;1.20;;;16.50;39.10;;;;;;4917714;29;20076;-81
2024/01/04 12:45:47;;;;;;;2.10;1.02;;;16.10;39.00;;;;;;4900088;29;20501;-80
2024/01/04 12:48:19;;;;;;;3.25;1.10;;;15.40;40.10;;;;;;4917577;29;20040;-80
2024/01/04 12:50:44;;;;;;;2.03;0.70;;;14.70;42.60;;;;;;4900387;29;20028;-80
2024/01/04 12:53:10;;;;;;;3.80;1.23;;;13.20;46.30;;;;;;4917277;29;20337;-81
2024/01/04 12:55:35;;;;;;;3.20;1.05;;;11.90;51.00;;;;;;4900275;29;20024;-82